Time;durP1;ratioP1;P1;durP2;ratioP2;P2;SDS_P1;SDS_P2;PMS_P1;PMS_P2;Temp;Humidity;BMP_temperature;BMP_pressure;BME280_temperature;BME280_humidity;BME280_pressure;Samples;Min_cycle;Max_cycle;Signal;HPM_P1;HPM_P2
2021/12/15 00:01:32;;;;;;;62.08;27.80;;;8.80;99.90;;;;;;4993802;28;20040;-82
2021/12/15 00:03:58;;;;;;;57.78;26.77;;;8.80;99.90;;;;;;4994381;28;20094;-83
2021/12/15 00:06:24;;;;;;;60.25;26.35;;;8.80;99.90;;;;;;4994070;28;20025;-83
2021/12/15 00:08:53;;;;;;;65.55;30.50;;;8.80;99.90;;;;;;4994117;28;20030;-83
2021/12/15 00:11:20;;;;;;;63.40;27.80;;;8.80;99.90;;;;;;4994321;28;20034;-83
2021/12/15 00:13:46;;;;;;;68.47;30.77;;;8.80;99.90;;;;;;4993813;28;20037;-81
2021/12/15 00:16:13;;;;;;;66.75;30.05;;;8.80;99.90;;;;;;5010002;28;20087;-82
2021/12/15 00:18:41;;;;;;;64.05;28.90;;;8.80;99.90;;;;;;5010123;28;20044;-83
2021/12/15 00:21:09;;;;;;;65.93;30.88;;;8.70;99.90;;;;;;4993910;28;20022;-82
2021/12/15 00:23:35;;;;;;;65.50;29.48;;;8.80;99.90;;;;;;4993817;28;20026;-83
2021/12/15 00:26:01;;;;;;;57.72;24.55;;;8.80;99.90;;;;;;4993571;28;20065;-83
2021/12/15 00:28:47;;;;;;;53.08;25.38;;;8.70;99.90;;;;;;4992916;28;20046;-83
2021/12/15 00:31:13;;;;;;;58.58;25.95;;;8.80;99.90;;;;;;4950288;29;20067;-82
2021/12/15 00:33:41;;;;;;;54.35;24.63;;;8.70;99.90;;;;;;4950633;29;20047;-83
2021/12/15 00:36:07;;;;;;;52.95;24.92;;;8.70;99.90;;;;;;4966428;29;20062;-83
2021/12/15 00:38:34;;;;;;;49.97;24.65;;;8.70;99.90;;;;;;4963533;29;20526;-83
2021/12/15 00:41:00;;;;;;;53.40;25.67;;;8.70;99.90;;;;;;4963244;29;20039;-83
2021/12/15 00:43:26;;;;;;;46.75;22.83;;;8.70;99.90;;;;;;4947345;29;20052;-83
2021/12/15 00:45:52;;;;;;;55.17;26.33;;;8.70;99.90;;;;;;4947337;29;20042;-82
2021/12/15 00:48:18;;;;;;;53.38;24.50;;;8.70;99.90;;;;;;4963042;29;20039;-83
2021/12/15 00:50:45;;;;;;;51.30;23.95;;;8.70;99.90;;;;;;4963017;29;20051;-82
2021/12/15 00:53:11;;;;;;;53.30;24.77;;;8.70;99.90;;;;;;4963256;29;20040;-82
2021/12/15 00:55:38;;;;;;;51.75;25.55;;;8.70;99.90;;;;;;4948251;29;20057;-82
2021/12/15 00:58:05;;;;;;;51.72;23.67;;;8.70;99.90;;;;;;4963282;29;20481;-83
2021/12/15 01:00:42;;;;;;;55.03;25.73;;;8.60;99.90;;;;;;4962806;29;20488;-83
2021/12/15 01:03:09;;;;;;;48.35;23.52;;;8.70;99.90;;;;;;4962593;29;20032;-82
2021/12/15 01:05:39;;;;;;;52.60;25.90;;;8.60;99.90;;;;;;4962863;29;20028;-82
2021/12/15 01:08:09;;;;;;;51.72;23.90;;;8.60;99.90;;;;;;4982762;28;20069;-83
2021/12/15 01:10:56;;;;;;;50.75;22.80;;;8.70;99.90;;;;;;5005965;28;20050;-82
2021/12/15 01:21:37;;;;;;;53.03;23.85;;;8.60;99.90;;;;;;5005546;28;20125;-82
2021/12/15 01:24:04;;;;;;;53.03;24.15;;;8.60;99.90;;;;;;4989375;28;20049;-82
2021/12/15 01:26:30;;;;;;;50.97;23.98;;;8.60;99.90;;;;;;5005357;28;20053;-82
2021/12/15 01:28:56;;;;;;;50.88;22.88;;;8.60;99.90;;;;;;4989360;28;20034;-82
2021/12/15 01:31:21;;;;;;;48.35;22.83;;;8.60;99.90;;;;;;4989174;28;20038;-82
2021/12/15 01:33:47;;;;;;;46.65;22.98;;;8.60;99.90;;;;;;4989167;28;20065;-82
2021/12/15 01:36:13;;;;;;;52.67;24.30;;;8.60;99.90;;;;;;4989178;28;20038;-82
2021/12/15 01:38:40;;;;;;;53.08;24.50;;;8.60;99.90;;;;;;4999284;28;20026;-82
2021/12/15 01:41:08;;;;;;;53.25;22.52;;;8.60;99.90;;;;;;4992248;28;20560;-82
2021/12/15 01:49:07;;;;;;;46.88;21.95;;;8.60;99.90;;;;;;5008402;28;20026;-82
2021/12/15 01:51:32;;;;;;;46.75;23.30;;;8.60;99.90;;;;;;5008372;28;20037;-82
2021/12/15 01:53:59;;;;;;;49.47;24.20;;;8.60;99.90;;;;;;5008283;28;20105;-82
2021/12/15 01:56:25;;;;;;;51.92;24.77;;;8.60;99.90;;;;;;4992213;28;20128;-82
2021/12/15 01:58:51;;;;;;;52.78;24.20;;;8.60;99.90;;;;;;5008313;28;20181;-82
2021/12/15 02:01:17;;;;;;;54.50;24.20;;;8.60;99.90;;;;;;4992196;28;20441;-83
2021/12/15 02:03:43;;;;;;;50.33;23.17;;;8.60;99.90;;;;;;4991905;28;20063;-82
2021/12/15 02:06:10;;;;;;;47.67;22.00;;;8.60;99.90;;;;;;4992083;28;20091;-82
2021/12/15 02:08:36;;;;;;;49.58;24.00;;;8.60;99.90;;;;;;4991931;28;20034;-83
2021/12/15 02:11:03;;;;;;;54.17;23.95;;;8.60;99.90;;;;;;4992170;28;20089;-82
2021/12/15 02:13:29;;;;;;;49.08;23.23;;;8.60;99.90;;;;;;4991953;28;20445;-83
2021/12/15 02:15:59;;;;;;;54.60;24.42;;;8.70;99.90;;;;;;5008026;28;20038;-82
2021/12/15 02:18:29;;;;;;;51.38;23.70;;;8.60;99.90;;;;;;4991928;28;20088;-82
2021/12/15 02:21:07;;;;;;;40.97;18.52;;;8.70;99.90;;;;;;4991936;28;20049;-83
2021/12/15 02:23:39;;;;;;;45.83;23.38;;;8.60;99.90;;;;;;4991782;28;20029;-82
2021/12/15 02:26:10;;;;;;;46.53;21.13;;;8.60;99.90;;;;;;4991871;28;20029;-83
2021/12/15 02:28:38;;;;;;;53.22;23.50;;;8.60;99.90;;;;;;5007955;28;20101;-83
2021/12/15 02:39:11;;;;;;;45.35;22.20;;;8.70;99.90;;;;;;5086001;28;20031;-81
2021/12/15 02:41:41;;;;;;;43.35;21.25;;;8.60;99.90;;;;;;5067880;28;20037;-82
2021/12/15 02:44:11;;;;;;;51.33;23.45;;;8.60;99.90;;;;;;5084479;28;20063;-81
2021/12/15 02:46:39;;;;;;;53.10;22.63;;;8.70;99.90;;;;;;5067813;28;20033;-82
2021/12/15 02:49:08;;;;;;;53.13;24.23;;;8.70;99.90;;;;;;5067521;28;20463;-82
2021/12/15 02:51:35;;;;;;;47.97;23.02;;;8.60;99.90;;;;;;5085701;28;20624;-82
2021/12/15 02:54:03;;;;;;;49.75;23.40;;;8.60;99.90;;;;;;5071685;28;20041;-82
2021/12/15 02:56:29;;;;;;;53.08;24.55;;;8.60;99.90;;;;;;5071621;28;20127;-82
2021/12/15 02:59:00;;;;;;;49.97;23.33;;;8.60;99.90;;;;;;5071411;28;20048;-81
2021/12/15 03:01:40;;;;;;;48.95;23.23;;;8.70;99.90;;;;;;5071554;28;20033;-81
2021/12/15 03:04:31;;;;;;;45.28;20.50;;;8.70;99.90;;;;;;5071388;28;20036;-82
2021/12/15 03:07:11;;;;;;;48.65;21.77;;;8.60;99.90;;;;;;5071350;28;20037;-81
2021/12/15 03:15:23;;;;;;;46.28;20.85;;;8.60;99.90;;;;;;5088684;28;20033;-82
2021/12/15 03:18:06;;;;;;;56.13;24.92;;;8.70;99.90;;;;;;5070987;28;20074;-82
2021/12/15 03:20:41;;;;;;;53.92;24.00;;;8.60;99.90;;;;;;5071119;28;20028;-82
2021/12/15 03:23:09;;;;;;;50.22;22.77;;;8.60;99.90;;;;;;5087530;28;20399;-82
2021/12/15 03:25:35;;;;;;;48.42;21.30;;;8.60;99.90;;;;;;5087587;28;20108;-81
2021/12/15 03:37:03;;;;;;;50.30;22.88;;;8.60;99.90;;;;;;5029338;28;20041;-82
2021/12/15 03:39:18;;;;;;;47.10;21.55;;;8.60;99.90;;;;;;5029037;28;20041;-82
2021/12/15 03:41:44;;;;;;;41.40;18.50;;;8.60;99.90;;;;;;5045957;28;20037;-82
2021/12/15 03:44:10;;;;;;;45.83;20.13;;;8.60;99.90;;;;;;5029219;28;20039;-82
2021/12/15 03:46:36;;;;;;;52.40;22.60;;;8.60;99.90;;;;;;5045949;28;20094;-81
2021/12/15 03:49:02;;;;;;;53.72;22.52;;;8.60;99.90;;;;;;5029296;28;20037;-82
2021/12/15 03:51:27;;;;;;;55.25;22.30;;;8.60;99.90;;;;;;5028897;28;20036;-82
2021/12/15 03:53:53;;;;;;;54.67;23.50;;;8.60;99.90;;;;;;5028894;28;20043;-82
2021/12/15 03:56:19;;;;;;;55.30;23.70;;;8.60;99.90;;;;;;5029114;28;20033;-82
2021/12/15 03:58:46;;;;;;;49.95;23.10;;;8.60;99.90;;;;;;5028759;28;20072;-81
2021/12/15 04:01:17;;;;;;;46.22;20.75;;;8.60;99.90;;;;;;5029142;28;20200;-82
2021/12/15 04:03:46;;;;;;;52.00;21.85;;;8.60;99.90;;;;;;5028748;28;20029;-81
2021/12/15 04:06:17;;;;;;;45.88;20.48;;;8.60;99.90;;;;;;5049757;28;20092;-81
2021/12/15 04:08:43;;;;;;;52.50;21.73;;;8.60;99.90;;;;;;5049892;28;20048;-83
2021/12/15 04:11:12;;;;;;;45.97;20.13;;;8.60;99.90;;;;;;5049807;28;20033;-82
2021/12/15 04:13:39;;;;;;;52.50;22.77;;;8.60;99.90;;;;;;5049645;28;20104;-82
2021/12/15 04:16:09;;;;;;;49.90;22.75;;;8.60;99.90;;;;;;5049728;28;20052;-82
2021/12/15 04:18:36;;;;;;;48.65;20.65;;;8.60;99.90;;;;;;5067701;28;20097;-82
2021/12/15 04:21:03;;;;;;;52.70;22.33;;;8.60;99.90;;;;;;5049285;28;20033;-82
2021/12/15 04:23:29;;;;;;;54.80;24.33;;;8.60;99.90;;;;;;5049577;28;20029;-82
2021/12/15 04:25:57;;;;;;;53.55;23.27;;;8.60;99.90;;;;;;5049565;28;20053;-82
2021/12/15 04:28:43;;;;;;;51.78;20.25;;;8.60;99.90;;;;;;5049273;28;20101;-81
2021/12/15 04:31:11;;;;;;;47.63;20.35;;;8.60;99.90;;;;;;5066926;22;20064;-82
2021/12/15 04:33:42;;;;;;;53.38;22.90;;;8.60;99.90;;;;;;5049795;28;20059;-82
2021/12/15 04:36:10;;;;;;;51.95;21.88;;;8.60;99.90;;;;;;5049614;28;20041;-82
2021/12/15 04:38:38;;;;;;;49.17;20.45;;;8.60;99.90;;;;;;5049664;28;20040;-82
2021/12/15 04:41:07;;;;;;;48.92;21.10;;;8.60;99.90;;;;;;5049588;28;20406;-81
2021/12/15 04:43:34;;;;;;;49.03;19.60;;;8.60;99.90;;;;;;5049623;28;20033;-82
2021/12/15 04:46:03;;;;;;;51.28;19.95;;;8.60;99.90;;;;;;5066196;28;20029;-82
2021/12/15 04:48:29;;;;;;;42.33;19.48;;;8.60;99.90;;;;;;5066161;28;20044;-81
2021/12/15 04:50:55;;;;;;;48.20;20.88;;;8.60;99.90;;;;;;5066118;28;20025;-82
2021/12/15 04:53:21;;;;;;;51.85;20.92;;;8.60;99.90;;;;;;5065813;28;20033;-82
2021/12/15 04:55:46;;;;;;;49.33;19.20;;;8.60;99.90;;;;;;5065891;28;20040;-81
2021/12/15 04:58:13;;;;;;;45.78;18.70;;;8.60;99.90;;;;;;5065896;28;20489;-82
2021/12/15 05:00:48;;;;;;;51.72;21.95;;;8.60;99.90;;;;;;5065819;28;20033;-81
2021/12/15 05:03:13;;;;;;;56.40;23.10;;;8.60;99.90;;;;;;5065547;28;20092;-82
2021/12/15 05:05:40;;;;;;;51.35;21.90;;;8.60;99.90;;;;;;5065644;28;20035;-82
2021/12/15 05:08:06;;;;;;;49.22;19.55;;;8.60;99.90;;;;;;5065452;28;20032;-82
2021/12/15 05:10:35;;;;;;;46.95;18.90;;;8.60;99.90;;;;;;5065586;28;20044;-82
2021/12/15 05:13:01;;;;;;;49.72;20.52;;;8.60;99.90;;;;;;5065465;28;20483;-82
2021/12/15 05:15:28;;;;;;;52.67;21.98;;;8.60;99.90;;;;;;5064640;28;20037;-82
2021/12/15 05:17:54;;;;;;;55.88;22.58;;;8.60;99.90;;;;;;5065331;28;20454;-81
2021/12/15 05:20:22;;;;;;;50.88;19.70;;;8.60;99.90;;;;;;5065133;28;20024;-82
2021/12/15 05:22:48;;;;;;;50.88;22.05;;;8.60;99.90;;;;;;5048419;28;20443;-82
2021/12/15 05:25:14;;;;;;;53.95;21.35;;;8.60;99.90;;;;;;5065094;28;20033;-81
2021/12/15 05:27:40;;;;;;;46.88;19.95;;;8.60;99.90;;;;;;5065161;28;20025;-82
2021/12/15 05:30:09;;;;;;;40.83;17.77;;;8.60;99.90;;;;;;5064880;28;20118;-83
2021/12/15 05:32:34;;;;;;;44.92;20.33;;;8.60;99.90;;;;;;5064973;28;20086;-82
2021/12/15 05:35:00;;;;;;;45.92;20.10;;;8.60;99.90;;;;;;5064932;28;20084;-83
2021/12/15 05:37:28;;;;;;;46.45;19.08;;;8.60;99.90;;;;;;5048131;28;20036;-82
2021/12/15 05:39:54;;;;;;;47.78;20.17;;;8.60;99.90;;;;;;5064878;28;20037;-82
2021/12/15 05:42:22;;;;;;;49.20;21.00;;;8.70;99.90;;;;;;5064701;28;20036;-82
2021/12/15 05:44:50;;;;;;;45.00;19.38;;;8.60;99.90;;;;;;5064685;28;20032;-82
2021/12/15 05:47:18;;;;;;;47.05;19.48;;;8.70;99.90;;;;;;5045011;28;20028;-82
2021/12/15 05:49:43;;;;;;;45.85;19.55;;;8.70;99.90;;;;;;5044412;28;20056;-83
2021/12/15 05:52:09;;;;;;;48.25;20.65;;;8.70;99.90;;;;;;5044831;28;20045;-84
2021/12/15 05:54:35;;;;;;;53.65;21.77;;;8.60;99.90;;;;;;5044795;28;20025;-85
2021/12/15 05:57:01;;;;;;;50.83;21.27;;;8.70;99.90;;;;;;5045067;28;20033;-84
2021/12/15 05:59:27;;;;;;;50.40;20.90;;;8.70;99.90;;;;;;5044899;28;20033;-85
2021/12/15 06:01:53;;;;;;;47.35;20.52;;;8.70;99.90;;;;;;5044646;28;20048;-85
2021/12/15 06:04:19;;;;;;;57.08;22.55;;;8.70;99.90;;;;;;5044938;28;20034;-84
2021/12/15 06:06:45;;;;;;;51.92;22.15;;;8.70;99.90;;;;;;5044622;28;20037;-84
2021/12/15 06:09:12;;;;;;;53.28;21.73;;;8.70;99.90;;;;;;5044803;28;20044;-84
2021/12/15 06:11:39;;;;;;;53.92;21.92;;;8.70;99.90;;;;;;5044591;28;20033;-85
2021/12/15 06:14:08;;;;;;;46.92;21.42;;;8.70;99.90;;;;;;5028381;28;20568;-85
2021/12/15 06:16:35;;;;;;;52.38;20.63;;;8.70;99.90;;;;;;5044913;28;20033;-83
2021/12/15 06:19:03;;;;;;;45.63;19.65;;;8.70;99.90;;;;;;5028640;28;20388;-83
2021/12/15 06:21:29;;;;;;;45.50;19.80;;;8.80;99.90;;;;;;5044478;28;20030;-83
2021/12/15 06:23:55;;;;;;;50.17;20.73;;;8.70;99.90;;;;;;5027740;28;20040;-83
2021/12/15 06:26:21;;;;;;;45.35;20.52;;;8.80;99.90;;;;;;5028738;28;20048;-82
2021/12/15 06:28:47;;;;;;;46.78;20.88;;;8.80;99.90;;;;;;5048590;28;20085;-83
2021/12/15 06:31:17;;;;;;;47.33;20.00;;;8.80;99.90;;;;;;5048214;28;20073;-83
2021/12/15 06:33:44;;;;;;;55.67;25.15;;;8.80;99.90;;;;;;5048148;28;20029;-83
2021/12/15 06:36:12;;;;;;;54.83;23.75;;;8.80;99.90;;;;;;5048569;28;20048;-83
2021/12/15 06:38:45;;;;;;;52.30;22.15;;;8.80;99.90;;;;;;5048448;28;20029;-83
2021/12/15 06:41:12;;;;;;;48.55;20.35;;;8.80;99.90;;;;;;5031876;28;20064;-83
2021/12/15 06:43:40;;;;;;;56.95;23.63;;;8.80;99.90;;;;;;5031893;28;20120;-83
2021/12/15 06:46:28;;;;;;;51.60;22.45;;;8.80;99.90;;;;;;5031792;28;20079;-83
2021/12/15 06:59:48;;;;;;;55.95;21.85;;;8.90;99.90;;;;;;5047860;28;20034;-82
2021/12/15 07:02:14;;;;;;;54.25;22.17;;;8.90;99.90;;;;;;5030981;28;20033;-84
2021/12/15 07:04:41;;;;;;;50.40;21.05;;;8.80;99.90;;;;;;5064588;28;20042;-82
2021/12/15 07:07:07;;;;;;;50.97;21.35;;;8.80;99.90;;;;;;5031085;28;20028;-83
2021/12/15 07:09:33;;;;;;;51.67;21.80;;;8.90;99.90;;;;;;5048004;28;20096;-83
2021/12/15 07:12:00;;;;;;;48.85;21.35;;;8.90;99.90;;;;;;5031061;28;20168;-83
2021/12/15 07:14:26;;;;;;;54.15;22.52;;;8.90;99.90;;;;;;5047688;28;20045;-82
2021/12/15 07:16:54;;;;;;;54.90;22.98;;;8.90;99.90;;;;;;5030703;28;20060;-82
2021/12/15 07:22:08;;;;;;;47.25;21.77;;;8.90;99.90;;;;;;5047018;28;20045;-83
2021/12/15 07:24:35;;;;;;;51.30;22.20;;;8.90;99.90;;;;;;5031302;28;20030;-83
2021/12/15 07:27:03;;;;;;;47.65;21.05;;;8.90;99.90;;;;;;5031027;28;20052;-83
2021/12/15 07:29:30;;;;;;;52.80;20.85;;;8.90;99.90;;;;;;5030813;28;20068;-84
2021/12/15 07:31:57;;;;;;;51.38;21.13;;;8.90;99.90;;;;;;5047243;28;20112;-82
2021/12/15 07:34:24;;;;;;;52.83;21.50;;;8.90;99.90;;;;;;5030763;28;20060;-83
2021/12/15 07:36:50;;;;;;;54.33;22.75;;;8.90;99.90;;;;;;5030101;28;20056;-83
2021/12/15 07:39:16;;;;;;;52.60;22.30;;;8.90;99.90;;;;;;5059244;28;20033;-83
2021/12/15 07:41:50;;;;;;;54.47;22.67;;;8.90;99.90;;;;;;5046890;28;20048;-84
2021/12/15 07:44:17;;;;;;;58.90;22.38;;;8.90;99.90;;;;;;5030654;28;20496;-82
2021/12/15 07:46:46;;;;;;;55.97;22.05;;;8.90;99.90;;;;;;5047072;28;20481;-82
2021/12/15 07:49:12;;;;;;;51.08;21.40;;;8.90;99.90;;;;;;5047021;28;20037;-83
2021/12/15 07:51:41;;;;;;;49.05;20.30;;;8.90;99.90;;;;;;5046763;28;20029;-83
2021/12/15 07:54:07;;;;;;;59.65;23.40;;;8.90;99.90;;;;;;5046810;28;20036;-82
2021/12/15 07:56:33;;;;;;;54.55;20.25;;;8.90;99.90;;;;;;5046805;28;20101;-82
2021/12/15 07:58:58;;;;;;;56.08;22.23;;;9.00;99.90;;;;;;5046941;28;20033;-82
2021/12/15 08:01:24;;;;;;;55.08;21.95;;;8.90;99.90;;;;;;5046842;28;20060;-83
2021/12/15 08:03:54;;;;;;;53.17;20.55;;;8.90;99.90;;;;;;5046663;28;20033;-83
2021/12/15 08:06:20;;;;;;;;;;;8.90;99.90;;;;;;5047470;28;20040;-83
2021/12/15 08:08:46;;;;;;;49.17;19.35;;;9.00;99.90;;;;;;5046529;28;19909;-83
2021/12/15 08:11:11;;;;;;;54.42;20.17;;;8.90;99.90;;;;;;5046563;28;20039;-83
2021/12/15 08:13:38;;;;;;;54.40;22.52;;;9.00;99.90;;;;;;5046388;28;20072;-82
2021/12/15 08:16:04;;;;;;;47.97;19.55;;;9.00;99.90;;;;;;5046491;28;20425;-83
2021/12/15 08:18:30;;;;;;;48.72;20.02;;;9.00;99.90;;;;;;5046443;28;20033;-83
2021/12/15 08:20:56;;;;;;;51.35;19.88;;;9.00;99.90;;;;;;5046562;28;20343;-83
2021/12/15 08:23:22;;;;;;;49.30;19.10;;;9.00;99.90;;;;;;5046349;28;20461;-83
2021/12/15 08:25:48;;;;;;;55.75;21.23;;;9.00;99.90;;;;;;5046571;28;20298;-83
2021/12/15 08:28:36;;;;;;;52.25;21.00;;;9.00;99.90;;;;;;5046028;28;20116;-84
2021/12/15 08:31:02;;;;;;;55.95;22.20;;;9.00;99.90;;;;;;5045663;28;20060;-83
2021/12/15 08:33:28;;;;;;;53.35;20.73;;;9.00;99.90;;;;;;5045495;28;20040;-83
2021/12/15 08:35:58;;;;;;;54.78;20.88;;;9.00;99.90;;;;;;5045398;28;20065;-83
2021/12/15 08:38:27;;;;;;;57.03;22.33;;;9.00;99.90;;;;;;5050335;28;20045;-82
2021/12/15 08:40:54;;;;;;;61.47;22.27;;;9.00;99.90;;;;;;5028787;28;20030;-82
2021/12/15 08:43:21;;;;;;;65.47;23.40;;;9.10;99.90;;;;;;5028563;28;20029;-83
2021/12/15 08:46:01;;;;;;;59.00;23.83;;;9.10;99.90;;;;;;5029162;28;20059;-83
2021/12/15 08:48:27;;;;;;;65.82;22.25;;;9.00;99.90;;;;;;5028117;28;20038;-83
2021/12/15 08:50:53;;;;;;;59.20;21.92;;;9.00;99.90;;;;;;5028664;28;20037;-82
2021/12/15 08:53:20;;;;;;;62.28;22.00;;;9.00;99.90;;;;;;5028635;28;20033;-82
2021/12/15 08:55:49;;;;;;;65.50;22.90;;;9.10;99.90;;;;;;5028364;28;20099;-82
2021/12/15 08:58:17;;;;;;;63.22;22.08;;;9.10;99.90;;;;;;5028276;28;20025;-83
2021/12/15 09:00:45;;;;;;;60.65;21.20;;;9.10;99.90;;;;;;5028689;28;20386;-83
2021/12/15 09:03:12;;;;;;;56.33;21.23;;;9.10;99.90;;;;;;5044963;28;20125;-84
2021/12/15 09:05:38;;;;;;;61.58;23.33;;;9.10;99.90;;;;;;5028454;28;20040;-82
2021/12/15 09:08:05;;;;;;;53.38;19.95;;;9.10;99.90;;;;;;5044668;28;20039;-82
2021/12/15 09:10:32;;;;;;;60.00;21.88;;;9.10;99.90;;;;;;5028306;28;20029;-83
2021/12/15 09:12:59;;;;;;;64.25;22.63;;;9.10;99.90;;;;;;5027945;28;20021;-82
2021/12/15 09:15:25;;;;;;;52.97;19.67;;;9.10;99.90;;;;;;5028322;28;20041;-82
2021/12/15 09:17:52;;;;;;;67.85;22.80;;;9.20;99.90;;;;;;5028166;28;20190;-83
2021/12/15 09:20:22;;;;;;;58.53;21.63;;;9.10;99.90;;;;;;5044487;28;20048;-83
2021/12/15 09:22:48;;;;;;;63.13;21.70;;;9.10;99.90;;;;;;5044466;28;20029;-83
2021/12/15 09:25:15;;;;;;;67.22;23.92;;;9.20;99.90;;;;;;5027942;28;20565;-83
2021/12/15 09:27:42;;;;;;;62.60;21.27;;;9.20;99.90;;;;;;5028097;28;20029;-83
2021/12/15 09:30:12;;;;;;;64.47;21.92;;;9.20;99.90;;;;;;5027230;28;20049;-82
2021/12/15 09:32:38;;;;;;;61.95;22.38;;;9.20;99.90;;;;;;5044541;28;20029;-82
2021/12/15 09:35:05;;;;;;;65.85;21.85;;;9.20;99.90;;;;;;5044287;28;20064;-83
2021/12/15 09:37:32;;;;;;;61.75;21.65;;;9.20;99.90;;;;;;5029026;28;20113;-83
2021/12/15 09:39:59;;;;;;;65.47;23.38;;;9.20;99.90;;;;;;5047955;28;20116;-82
2021/12/15 09:42:32;;;;;;;61.90;23.25;;;9.20;99.90;;;;;;5064115;28;20055;-83
2021/12/15 09:45:14;;;;;;;67.35;23.10;;;9.20;99.90;;;;;;5047608;28;20085;-82
2021/12/15 10:19:53;;;;;;;80.65;27.92;;;9.40;99.90;;;;;;5063753;28;20033;-83
2021/12/15 10:22:35;;;;;;;63.47;23.43;;;9.50;99.90;;;;;;5047017;28;20524;-83
2021/12/15 10:25:06;;;;;;;66.30;22.90;;;9.50;99.90;;;;;;5047225;28;20070;-83
2021/12/15 10:27:49;;;;;;;69.85;26.33;;;9.50;99.90;;;;;;5047208;28;20456;-83
2021/12/15 10:30:26;;;;;;;72.10;25.85;;;9.50;99.90;;;;;;5046619;28;20049;-83
2021/12/15 10:32:57;;;;;;;68.05;25.05;;;9.50;99.90;;;;;;5063536;28;20473;-83
2021/12/15 10:35:33;;;;;;;72.30;26.60;;;9.60;99.90;;;;;;5063330;28;20091;-84
2021/12/15 10:38:30;;;;;;;70.38;26.00;;;9.60;99.90;;;;;;5043480;28;20041;-82
2021/12/15 10:41:02;;;;;;;58.97;23.08;;;9.60;99.90;;;;;;5026865;28;20083;-82
2021/12/15 10:43:57;;;;;;;53.20;19.90;;;9.60;99.90;;;;;;5043449;28;20037;-82
2021/12/15 10:46:33;;;;;;;61.58;23.13;;;9.70;99.90;;;;;;5044394;28;20045;-82
2021/12/15 10:49:12;;;;;;;62.70;23.15;;;9.70;99.90;;;;;;5027151;28;20033;-83
2021/12/15 10:51:44;;;;;;;65.05;24.75;;;9.70;99.90;;;;;;5043303;28;20041;-82
2021/12/15 10:54:24;;;;;;;62.55;24.88;;;9.70;99.90;;;;;;5043256;28;20093;-82
2021/12/15 10:56:51;;;;;;;65.28;24.63;;;9.80;99.90;;;;;;5026805;28;20397;-82
2021/12/15 10:59:18;;;;;;;56.50;22.83;;;9.80;99.90;;;;;;5026559;28;20034;-82
2021/12/15 11:01:50;;;;;;;61.92;24.23;;;9.80;99.90;;;;;;5026429;28;20033;-81
2021/12/15 11:04:27;;;;;;;67.43;25.80;;;9.80;99.90;;;;;;5026944;28;20063;-81
2021/12/15 11:07:12;;;;;;;52.65;21.42;;;9.80;99.90;;;;;;5043140;28;20033;-82
2021/12/15 11:09:51;;;;;;;72.07;28.17;;;9.80;99.90;;;;;;5027158;28;20044;-82
2021/12/15 11:12:36;;;;;;;65.75;25.85;;;9.80;99.90;;;;;;5027583;28;20030;-82
2021/12/15 11:15:12;;;;;;;60.63;26.35;;;9.90;99.90;;;;;;5046795;28;20076;-82
2021/12/15 11:17:46;;;;;;;65.45;26.40;;;9.90;99.90;;;;;;5030439;28;20141;-82
2021/12/15 11:20:18;;;;;;;59.80;23.67;;;9.90;99.90;;;;;;5030302;28;20101;-82
2021/12/15 11:22:44;;;;;;;67.18;26.83;;;10.00;99.90;;;;;;5030447;28;20033;-82
2021/12/15 11:25:21;;;;;;;69.45;28.23;;;10.00;99.90;;;;;;5030432;28;20025;-82
2021/12/15 11:27:54;;;;;;;71.80;30.35;;;10.00;99.90;;;;;;5046857;28;20043;-82
2021/12/15 11:30:25;;;;;;;65.55;27.30;;;10.00;99.90;;;;;;5029721;28;20049;-82
2021/12/15 11:32:54;;;;;;;55.50;23.90;;;10.10;99.90;;;;;;5029865;28;20111;-82
2021/12/15 11:35:30;;;;;;;71.03;28.85;;;10.10;99.90;;;;;;5046427;28;20042;-82
2021/12/15 11:38:00;;;;;;;62.70;25.88;;;10.20;99.90;;;;;;5030953;28;20026;-82
2021/12/15 11:40:52;;;;;;;58.63;26.00;;;10.20;99.90;;;;;;5046991;28;20082;-83
2021/12/15 11:43:32;;;;;;;57.28;25.17;;;10.20;99.90;;;;;;5046782;28;20064;-82
2021/12/15 11:46:00;;;;;;;56.85;25.08;;;10.20;99.90;;;;;;5046834;28;20095;-82
2021/12/15 11:48:29;;;;;;;59.30;25.92;;;10.20;99.90;;;;;;5046338;28;20040;-82
2021/12/15 11:51:00;;;;;;;57.28;25.00;;;10.20;99.90;;;;;;5046227;28;20042;-83
2021/12/15 11:53:31;;;;;;;;;;;10.30;99.90;;;;;;5046492;28;20034;-83
2021/12/15 11:56:25;;;;;;;58.67;24.75;;;10.30;99.90;;;;;;5046127;28;19924;-83
2021/12/15 11:58:59;;;;;;;52.05;24.45;;;10.30;99.90;;;;;;5046080;28;20465;-83
2021/12/15 12:02:02;;;;;;;55.75;24.55;;;10.30;99.90;;;;;;5045823;28;20073;-83
2021/12/15 12:04:53;;;;;;;59.50;28.10;;;10.30;99.90;;;;;;4999417;28;20043;-82
2021/12/15 12:07:20;;;;;;;54.05;24.95;;;10.20;99.90;;;;;;5029590;28;20038;-82
2021/12/15 12:09:54;;;;;;;51.97;24.10;;;10.30;99.90;;;;;;5045948;28;20097;-82
2021/12/15 12:12:24;;;;;;;54.17;24.75;;;10.30;99.90;;;;;;5046981;28;20026;-83
2021/12/15 12:14:50;;;;;;;58.95;24.38;;;10.30;99.90;;;;;;5045986;28;20514;-83
2021/12/15 12:17:25;;;;;;;59.70;26.50;;;10.30;99.90;;;;;;5045512;28;20049;-83
2021/12/15 12:20:16;;;;;;;57.10;27.00;;;10.30;99.90;;;;;;5046015;28;20199;-83
2021/12/15 12:22:45;;;;;;;54.67;25.05;;;10.30;99.90;;;;;;5026403;28;20045;-83
2021/12/15 12:25:14;;;;;;;55.58;26.10;;;10.30;99.90;;;;;;5044569;28;20033;-83
2021/12/15 12:27:42;;;;;;;58.67;27.48;;;10.30;99.90;;;;;;5028945;28;20089;-83
2021/12/15 12:30:16;;;;;;;59.25;27.52;;;10.30;99.90;;;;;;5045228;28;20073;-83
2021/12/15 12:32:44;;;;;;;52.92;25.48;;;10.30;99.90;;;;;;5045324;28;20033;-82
2021/12/15 12:35:12;;;;;;;51.13;25.08;;;10.30;99.90;;;;;;5045428;28;20041;-83
2021/12/15 12:37:38;;;;;;;59.42;27.92;;;10.30;99.90;;;;;;5030569;28;20090;-83
2021/12/15 12:40:26;;;;;;;62.05;27.88;;;10.30;99.90;;;;;;5065430;28;20064;-83
2021/12/15 12:42:52;;;;;;;55.50;29.27;;;10.30;99.90;;;;;;5048448;28;20040;-83
2021/12/15 12:45:40;;;;;;;52.20;25.75;;;10.30;99.90;;;;;;5065285;28;20037;-83
2021/12/15 12:48:36;;;;;;;54.05;24.02;;;10.40;99.90;;;;;;5065352;28;20481;-83
2021/12/15 12:59:49;;;;;;;51.28;25.25;;;10.50;99.90;;;;;;5064925;28;20092;-82
2021/12/15 13:02:25;;;;;;;48.50;25.88;;;10.60;99.90;;;;;;5064632;28;20037;-83
2021/12/15 13:04:51;;;;;;;46.63;24.30;;;10.60;99.90;;;;;;5064797;28;20036;-83
2021/12/15 13:07:54;;;;;;;46.30;24.80;;;10.70;99.90;;;;;;5064703;28;20029;-82
2021/12/15 13:10:21;;;;;;;47.42;25.83;;;10.60;99.90;;;;;;5048125;28;20033;-83
2021/12/15 13:12:48;;;;;;;48.97;26.25;;;10.60;99.90;;;;;;5064792;28;20028;-83
2021/12/15 13:15:23;;;;;;;50.35;27.27;;;10.60;99.90;;;;;;5064908;28;20037;-83
2021/12/15 13:18:01;;;;;;;44.08;25.70;;;10.60;99.90;;;;;;5064566;28;20037;-83
2021/12/15 13:20:32;;;;;;;44.95;25.25;;;10.70;99.90;;;;;;5064786;28;20033;-83
2021/12/15 13:23:32;;;;;;;49.33;26.85;;;10.70;99.90;;;;;;5064262;28;20029;-82
2021/12/15 13:28:52;;;;;;;44.33;25.33;;;10.60;99.90;;;;;;5064352;28;20476;-83
2021/12/15 13:31:22;;;;;;;44.65;25.35;;;10.60;99.90;;;;;;5027793;28;20077;-83
2021/12/15 13:33:56;;;;;;;44.13;23.33;;;10.60;99.90;;;;;;5043051;28;20080;-83
2021/12/15 13:36:21;;;;;;;42.22;23.73;;;10.60;99.90;;;;;;5026210;28;20207;-83
2021/12/15 13:38:57;;;;;;;45.42;25.27;;;10.60;99.90;;;;;;5015215;28;20033;-83
2021/12/15 13:44:17;;;;;;;41.63;24.13;;;10.60;99.90;;;;;;5023313;28;20556;-83
2021/12/15 13:46:48;;;;;;;40.13;23.92;;;10.60;99.90;;;;;;5006981;28;20469;-83
2021/12/15 13:49:39;;;;;;;41.35;24.48;;;10.60;99.90;;;;;;5023033;28;20038;-83
2021/12/15 13:52:17;;;;;;;39.03;23.25;;;10.50;99.90;;;;;;5006656;28;20038;-83
2021/12/15 13:54:45;;;;;;;38.92;21.70;;;10.50;99.90;;;;;;5023038;28;20049;-83
2021/12/15 13:57:14;;;;;;;42.30;23.65;;;10.50;99.90;;;;;;5023267;28;20097;-84
2021/12/15 14:00:11;;;;;;;39.00;23.10;;;10.50;99.90;;;;;;5022932;28;20030;-83
2021/12/15 14:03:01;;;;;;;38.20;22.98;;;10.50;99.90;;;;;;4983981;28;20037;-83
2021/12/15 14:05:44;;;;;;;36.38;22.35;;;10.50;99.90;;;;;;5023115;28;20026;-83
2021/12/15 14:08:19;;;;;;;44.65;25.13;;;10.50;99.90;;;;;;5020115;28;20041;-83
2021/12/15 14:10:58;;;;;;;40.63;23.48;;;10.50;99.90;;;;;;5043943;28;20026;-83
2021/12/15 14:13:42;;;;;;;35.75;21.75;;;10.40;99.90;;;;;;5027349;28;20029;-84
2021/12/15 14:16:08;;;;;;;39.50;23.20;;;10.40;99.90;;;;;;5027240;28;20045;-83
2021/12/15 14:18:34;;;;;;;33.92;19.98;;;10.40;99.90;;;;;;5043828;28;20087;-83
2021/12/15 14:21:15;;;;;;;33.20;19.17;;;10.40;99.90;;;;;;5027233;28;20478;-83
2021/12/15 14:23:45;;;;;;;37.85;20.75;;;10.40;99.90;;;;;;5027206;28;20044;-82
2021/12/15 14:26:15;;;;;;;36.45;21.73;;;10.30;99.90;;;;;;5043663;28;20115;-82
2021/12/15 14:31:58;;;;;;;30.90;18.27;;;10.30;99.90;;;;;;5063429;28;20071;-82